sensor_id;sensor_type;location;lat;lon;timestamp;temperature;humidity
1137;DHT22;557;48.466;7.950;2022-09-09T00:02:35;17.70;99.90
1137;DHT22;557;48.466;7.950;2022-09-09T00:05:28;17.70;99.90
1137;DHT22;557;48.466;7.950;2022-09-09T00:08:20;17.70;99.90
1137;DHT22;557;48.466;7.950;2022-09-09T00:11:12;17.70;1.00
1137;DHT22;557;48.466;7.950;2022-09-09T00:14:00;17.70;1.00
1137;DHT22;557;48.466;7.950;2022-09-09T00:16:53;17.70;1.00
1137;DHT22;557;48.466;7.950;2022-09-09T00:19:44;17.70;1.00
1137;DHT22;557;48.466;7.950;2022-09-09T00:22:34;17.60;1.00
1137;DHT22;557;48.466;7.950;2022-09-09T00:25:28;17.50;1.00
1137;DHT22;557;48.466;7.950;2022-09-09T00:28:18;17.40;1.00
1137;DHT22;557;48.466;7.950;2022-09-09T00:31:12;17.40;1.00
1137;DHT22;557;48.466;7.950;2022-09-09T00:34:02;17.30;31.90
1137;DHT22;557;48.466;7.950;2022-09-09T00:36:50;17.30;1.00
1137;DHT22;557;48.466;7.950;2022-09-09T00:39:40;17.30;1.00
1137;DHT22;557;48.466;7.950;2022-09-09T00:42:40;17.40;1.00
1137;DHT22;557;48.466;7.950;2022-09-09T00:45:43;17.30;1.00
1137;DHT22;557;48.466;7.950;2022-09-09T00:48:41;17.30;1.00
1137;DHT22;557;48.466;7.950;2022-09-09T00:51:41;17.30;1.00
1137;DHT22;557;48.466;7.950;2022-09-09T00:54:39;17.30;1.00
1137;DHT22;557;48.466;7.950;2022-09-09T00:57:28;17.30;1.00
1137;DHT22;557;48.466;7.950;2022-09-09T01:00:23;17.20;1.00
1137;DHT22;557;48.466;7.950;2022-09-09T01:03:19;17.20;1.00
1137;DHT22;557;48.466;7.950;2022-09-09T01:06:14;17.30;1.00
1137;DHT22;557;48.466;7.950;2022-09-09T01:09:17;17.40;1.00
1137;DHT22;557;48.466;7.950;2022-09-09T01:12:11;17.40;1.00
1137;DHT22;557;48.466;7.950;2022-09-09T01:15:03;17.40;1.00
1137;DHT22;557;48.466;7.950;2022-09-09T01:17:58;17.40;1.00
1137;DHT22;557;48.466;7.950;2022-09-09T01:20:52;17.40;1.00
1137;DHT22;557;48.466;7.950;2022-09-09T01:23:58;17.50;1.00
1137;DHT22;557;48.466;7.950;2022-09-09T01:26:46;17.50;99.90
1137;DHT22;557;48.466;7.950;2022-09-09T01:29:36;17.40;99.90
1137;DHT22;557;48.466;7.950;2022-09-09T01:32:40;17.50;99.90
1137;DHT22;557;48.466;7.950;2022-09-09T01:35:32;17.40;99.90
1137;DHT22;557;48.466;7.950;2022-09-09T01:38:22;17.40;1.00
1137;DHT22;557;48.466;7.950;2022-09-09T01:41:08;17.40;1.00
1137;DHT22;557;48.466;7.950;2022-09-09T01:43:57;17.40;1.00
1137;DHT22;557;48.466;7.950;2022-09-09T01:46:42;17.30;1.00
1137;DHT22;557;48.466;7.950;2022-09-09T01:49:27;17.30;1.00
1137;DHT22;557;48.466;7.950;2022-09-09T01:52:13;17.20;1.00
1137;DHT22;557;48.466;7.950;2022-09-09T01:54:58;17.20;1.00
1137;DHT22;557;48.466;7.950;2022-09-09T01:57:52;17.20;1.00
1137;DHT22;557;48.466;7.950;2022-09-09T02:00:51;17.20;1.00
1137;DHT22;557;48.466;7.950;2022-09-09T02:03:43;17.20;1.00
1137;DHT22;557;48.466;7.950;2022-09-09T02:06:33;17.20;1.00
1137;DHT22;557;48.466;7.950;2022-09-09T02:09:23;17.10;1.00
1137;DHT22;557;48.466;7.950;2022-09-09T02:12:14;17.00;1.00
1137;DHT22;557;48.466;7.950;2022-09-09T02:15:07;17.00;1.00
1137;DHT22;557;48.466;7.950;2022-09-09T02:17:58;16.80;1.00
1137;DHT22;557;48.466;7.950;2022-09-09T02:20:46;16.80;1.00
1137;DHT22;557;48.466;7.950;2022-09-09T02:23:34;16.80;1.00
1137;DHT22;557;48.466;7.950;2022-09-09T02:26:21;16.80;1.00
1137;DHT22;557;48.466;7.950;2022-09-09T02:29:09;16.70;1.00
1137;DHT22;557;48.466;7.950;2022-09-09T02:31:59;16.70;1.00
1137;DHT22;557;48.466;7.950;2022-09-09T02:34:50;16.70;1.00
1137;DHT22;557;48.466;7.950;2022-09-09T02:37:41;16.60;1.00
1137;DHT22;557;48.466;7.950;2022-09-09T02:40:26;16.60;1.00
1137;DHT22;557;48.466;7.950;2022-09-09T02:43:14;16.60;1.00
1137;DHT22;557;48.466;7.950;2022-09-09T02:46:04;16.70;1.00
1137;DHT22;557;48.466;7.950;2022-09-09T02:49:00;16.70;1.00
1137;DHT22;557;48.466;7.950;2022-09-09T02:51:53;16.70;1.00
1137;DHT22;557;48.466;7.950;2022-09-09T02:54:43;16.80;1.00
1137;DHT22;557;48.466;7.950;2022-09-09T02:57:30;16.80;1.00
1137;DHT22;557;48.466;7.950;2022-09-09T03:00:23;16.80;1.00
1137;DHT22;557;48.466;7.950;2022-09-09T03:03:10;16.90;1.00
1137;DHT22;557;48.466;7.950;2022-09-09T03:05:55;16.80;1.00
1137;DHT22;557;48.466;7.950;2022-09-09T03:08:43;16.90;1.00
1137;DHT22;557;48.466;7.950;2022-09-09T03:11:29;16.90;1.00
1137;DHT22;557;48.466;7.950;2022-09-09T03:14:14;16.90;1.00
1137;DHT22;557;48.466;7.950;2022-09-09T03:17:00;16.90;1.00
1137;DHT22;557;48.466;7.950;2022-09-09T03:19:46;16.90;1.00
1137;DHT22;557;48.466;7.950;2022-09-09T03:22:34;16.90;1.00
1137;DHT22;557;48.466;7.950;2022-09-09T03:25:22;16.90;1.00
1137;DHT22;557;48.466;7.950;2022-09-09T03:28:08;16.90;1.00
1137;DHT22;557;48.466;7.950;2022-09-09T03:30:58;16.90;1.00
1137;DHT22;557;48.466;7.950;2022-09-09T03:33:43;17.00;1.00
1137;DHT22;557;48.466;7.950;2022-09-09T03:36:29;17.00;1.00
1137;DHT22;557;48.466;7.950;2022-09-09T03:39:14;17.00;1.00
1137;DHT22;557;48.466;7.950;2022-09-09T03:42:01;16.90;1.00
1137;DHT22;557;48.466;7.950;2022-09-09T03:44:48;16.80;1.00
1137;DHT22;557;48.466;7.950;2022-09-09T03:47:34;16.70;1.00
1137;DHT22;557;48.466;7.950;2022-09-09T03:50:20;16.60;1.00
1137;DHT22;557;48.466;7.950;2022-09-09T03:53:06;16.50;1.00
1137;DHT22;557;48.466;7.950;2022-09-09T03:55:53;16.50;1.00
1137;DHT22;557;48.466;7.950;2022-09-09T03:58:41;16.50;1.00
1137;DHT22;557;48.466;7.950;2022-09-09T04:01:27;16.50;1.00
1137;DHT22;557;48.466;7.950;2022-09-09T04:04:13;16.50;1.00
1137;DHT22;557;48.466;7.950;2022-09-09T04:06:58;16.50;1.00
1137;DHT22;557;48.466;7.950;2022-09-09T04:09:44;16.50;1.00
1137;DHT22;557;48.466;7.950;2022-09-09T04:12:30;16.50;1.00
1137;DHT22;557;48.466;7.950;2022-09-09T04:15:17;16.60;1.00
1137;DHT22;557;48.466;7.950;2022-09-09T04:18:03;16.60;1.00
1137;DHT22;557;48.466;7.950;2022-09-09T04:20:51;16.50;1.00
1137;DHT22;557;48.466;7.950;2022-09-09T04:23:37;16.50;1.00
1137;DHT22;557;48.466;7.950;2022-09-09T04:26:23;16.40;1.00
1137;DHT22;557;48.466;7.950;2022-09-09T04:29:09;16.30;1.00
1137;DHT22;557;48.466;7.950;2022-09-09T04:31:56;16.20;2.50
1137;DHT22;557;48.466;7.950;2022-09-09T04:34:42;16.10;1.00
1137;DHT22;557;48.466;7.950;2022-09-09T04:37:29;16.10;1.00
1137;DHT22;557;48.466;7.950;2022-09-09T04:40:14;16.10;1.00
1137;DHT22;557;48.466;7.950;2022-09-09T04:43:00;16.10;1.00
1137;DHT22;557;48.466;7.950;2022-09-09T04:45:47;16.10;1.00
1137;DHT22;557;48.466;7.950;2022-09-09T04:48:34;16.10;1.00
1137;DHT22;557;48.466;7.950;2022-09-09T04:51:20;16.10;1.00
1137;DHT22;557;48.466;7.950;2022-09-09T04:54:06;16.10;1.00
1137;DHT22;557;48.466;7.950;2022-09-09T04:56:52;16.10;1.00
1137;DHT22;557;48.466;7.950;2022-09-09T04:59:37;16.10;1.00
1137;DHT22;557;48.466;7.950;2022-09-09T05:02:23;16.00;1.00
1137;DHT22;557;48.466;7.950;2022-09-09T05:05:10;16.00;1.00
1137;DHT22;557;48.466;7.950;2022-09-09T05:08:01;16.10;1.00
1137;DHT22;557;48.466;7.950;2022-09-09T05:10:47;16.00;1.00
1137;DHT22;557;48.466;7.950;2022-09-09T05:13:33;16.00;1.00
1137;DHT22;557;48.466;7.950;2022-09-09T05:16:19;16.10;1.00
1137;DHT22;557;48.466;7.950;2022-09-09T05:19:07;16.10;1.00
1137;DHT22;557;48.466;7.950;2022-09-09T05:21:54;16.10;1.00
1137;DHT22;557;48.466;7.950;2022-09-09T05:24:40;16.10;1.00
1137;DHT22;557;48.466;7.950;2022-09-09T05:27:26;16.20;1.00
1137;DHT22;557;48.466;7.950;2022-09-09T05:30:12;16.20;1.00
1137;DHT22;557;48.466;7.950;2022-09-09T05:32:58;16.20;1.00
1137;DHT22;557;48.466;7.950;2022-09-09T05:35:43;16.20;5.00
1137;DHT22;557;48.466;7.950;2022-09-09T05:38:30;16.20;3.70
1137;DHT22;557;48.466;7.950;2022-09-09T05:41:17;16.20;4.30
1137;DHT22;557;48.466;7.950;2022-09-09T05:44:04;16.20;3.70
1137;DHT22;557;48.466;7.950;2022-09-09T05:46:50;16.30;1.00
1137;DHT22;557;48.466;7.950;2022-09-09T05:49:35;16.30;1.00
1137;DHT22;557;48.466;7.950;2022-09-09T05:52:21;16.40;1.00
1137;DHT22;557;48.466;7.950;2022-09-09T05:55:09;16.50;1.00
1137;DHT22;557;48.466;7.950;2022-09-09T05:57:54;16.60;1.00
1137;DHT22;557;48.466;7.950;2022-09-09T06:00:40;16.70;1.00
1137;DHT22;557;48.466;7.950;2022-09-09T06:03:25;16.90;1.00
1137;DHT22;557;48.466;7.950;2022-09-09T06:06:12;16.90;1.00
1137;DHT22;557;48.466;7.950;2022-09-09T06:08:58;17.00;1.00
1137;DHT22;557;48.466;7.950;2022-09-09T06:11:46;17.10;1.00
1137;DHT22;557;48.466;7.950;2022-09-09T06:14:31;17.20;1.00
1137;DHT22;557;48.466;7.950;2022-09-09T06:17:17;17.30;1.00
1137;DHT22;557;48.466;7.950;2022-09-09T06:20:04;17.40;1.00
1137;DHT22;557;48.466;7.950;2022-09-09T06:22:50;17.40;1.00
1137;DHT22;557;48.466;7.950;2022-09-09T06:25:35;17.50;1.00
1137;DHT22;557;48.466;7.950;2022-09-09T06:28:26;17.50;1.00
1137;DHT22;557;48.466;7.950;2022-09-09T06:31:13;17.50;1.00
1137;DHT22;557;48.466;7.950;2022-09-09T06:33:59;17.60;1.00
1137;DHT22;557;48.466;7.950;2022-09-09T06:36:45;17.60;1.00
1137;DHT22;557;48.466;7.950;2022-09-09T06:39:31;17.70;1.00
1137;DHT22;557;48.466;7.950;2022-09-09T06:42:16;17.80;1.00
1137;DHT22;557;48.466;7.950;2022-09-09T06:45:03;17.90;1.00
1137;DHT22;557;48.466;7.950;2022-09-09T06:47:49;18.00;1.00
1137;DHT22;557;48.466;7.950;2022-09-09T06:50:36;18.10;1.00
1137;DHT22;557;48.466;7.950;2022-09-09T06:53:21;18.20;1.00
1137;DHT22;557;48.466;7.950;2022-09-09T06:56:19;18.20;1.00
1137;DHT22;557;48.466;7.950;2022-09-09T06:59:06;18.20;1.00
1137;DHT22;557;48.466;7.950;2022-09-09T07:01:54;18.30;1.00
1137;DHT22;557;48.466;7.950;2022-09-09T07:04:40;18.30;1.00
1137;DHT22;557;48.466;7.950;2022-09-09T07:07:27;18.30;1.00
1137;DHT22;557;48.466;7.950;2022-09-09T07:10:13;18.30;1.00
1137;DHT22;557;48.466;7.950;2022-09-09T07:12:58;18.30;1.00
1137;DHT22;557;48.466;7.950;2022-09-09T07:15:44;18.30;1.00
1137;DHT22;557;48.466;7.950;2022-09-09T07:18:31;18.20;1.00
1137;DHT22;557;48.466;7.950;2022-09-09T07:21:17;18.30;1.00
1137;DHT22;557;48.466;7.950;2022-09-09T07:24:05;18.20;1.00
1137;DHT22;557;48.466;7.950;2022-09-09T07:26:51;18.20;1.00
1137;DHT22;557;48.466;7.950;2022-09-09T07:29:36;18.10;1.00
1137;DHT22;557;48.466;7.950;2022-09-09T07:32:23;18.10;1.00
1137;DHT22;557;48.466;7.950;2022-09-09T07:35:11;18.10;1.00
1137;DHT22;557;48.466;7.950;2022-09-09T07:37:57;18.20;1.00
1137;DHT22;557;48.466;7.950;2022-09-09T07:40:43;18.30;1.00
1137;DHT22;557;48.466;7.950;2022-09-09T07:43:29;18.30;1.00
1137;DHT22;557;48.466;7.950;2022-09-09T07:46:16;18.30;1.00
1137;DHT22;557;48.466;7.950;2022-09-09T07:49:03;18.60;1.00
1137;DHT22;557;48.466;7.950;2022-09-09T07:51:50;18.80;1.00
1137;DHT22;557;48.466;7.950;2022-09-09T07:54:36;18.90;1.00
1137;DHT22;557;48.466;7.950;2022-09-09T07:57:22;19.20;99.90
1137;DHT22;557;48.466;7.950;2022-09-09T08:00:09;19.40;99.90
1137;DHT22;557;48.466;7.950;2022-09-09T08:02:55;19.60;99.90
1137;DHT22;557;48.466;7.950;2022-09-09T08:05:40;19.80;99.90
1137;DHT22;557;48.466;7.950;2022-09-09T08:08:28;20.10;1.00
1137;DHT22;557;48.466;7.950;2022-09-09T08:11:14;20.10;99.90
1137;DHT22;557;48.466;7.950;2022-09-09T08:14:00;20.00;1.00
1137;DHT22;557;48.466;7.950;2022-09-09T08:16:48;20.00;99.90
1137;DHT22;557;48.466;7.950;2022-09-09T08:19:43;20.10;99.90
1137;DHT22;557;48.466;7.950;2022-09-09T08:22:29;20.00;99.90
1137;DHT22;557;48.466;7.950;2022-09-09T08:25:17;20.00;1.00
1137;DHT22;557;48.466;7.950;2022-09-09T08:28:02;20.30;1.00
1137;DHT22;557;48.466;7.950;2022-09-09T08:30:48;20.50;59.50
1137;DHT22;557;48.466;7.950;2022-09-09T08:33:34;20.70;1.00
1137;DHT22;557;48.466;7.950;2022-09-09T08:36:24;20.70;99.90
1137;DHT22;557;48.466;7.950;2022-09-09T08:39:12;20.70;99.90
1137;DHT22;557;48.466;7.950;2022-09-09T08:42:16;20.60;1.00
1137;DHT22;557;48.466;7.950;2022-09-09T08:45:24;20.50;4.00
1137;DHT22;557;48.466;7.950;2022-09-09T08:48:22;20.50;99.90
1137;DHT22;557;48.466;7.950;2022-09-09T08:51:15;20.40;1.00
1137;DHT22;557;48.466;7.950;2022-09-09T08:54:03;20.50;99.90
1137;DHT22;557;48.466;7.950;2022-09-09T08:56:50;20.70;99.90
1137;DHT22;557;48.466;7.950;2022-09-09T08:59:37;20.70;1.00
1137;DHT22;557;48.466;7.950;2022-09-09T09:02:26;20.50;1.00
1137;DHT22;557;48.466;7.950;2022-09-09T09:05:20;20.40;1.00
1137;DHT22;557;48.466;7.950;2022-09-09T09:08:17;20.40;99.90
1137;DHT22;557;48.466;7.950;2022-09-09T09:11:06;20.40;99.90
1137;DHT22;557;48.466;7.950;2022-09-09T09:13:55;20.40;1.00
1137;DHT22;557;48.466;7.950;2022-09-09T09:16:49;20.30;1.00
1137;DHT22;557;48.466;7.950;2022-09-09T09:19:39;20.30;99.90
1137;DHT22;557;48.466;7.950;2022-09-09T09:22:31;20.30;99.90
1137;DHT22;557;48.466;7.950;2022-09-09T09:25:22;20.20;99.90
1137;DHT22;557;48.466;7.950;2022-09-09T09:28:13;20.10;99.90
1137;DHT22;557;48.466;7.950;2022-09-09T09:31:05;20.00;99.90
1137;DHT22;557;48.466;7.950;2022-09-09T09:33:53;19.80;99.90
1137;DHT22;557;48.466;7.950;2022-09-09T09:36:42;19.20;1.00
1137;DHT22;557;48.466;7.950;2022-09-09T09:39:31;18.70;1.00
1137;DHT22;557;48.466;7.950;2022-09-09T09:42:20;18.60;1.00
1137;DHT22;557;48.466;7.950;2022-09-09T09:45:16;18.50;1.00
1137;DHT22;557;48.466;7.950;2022-09-09T09:48:06;18.30;1.00
1137;DHT22;557;48.466;7.950;2022-09-09T09:50:56;17.80;1.00
1137;DHT22;557;48.466;7.950;2022-09-09T09:53:45;17.20;66.80
1137;DHT22;557;48.466;7.950;2022-09-09T09:56:31;17.00;92.50
1137;DHT22;557;48.466;7.950;2022-09-09T09:59:22;16.90;84.40
1137;DHT22;557;48.466;7.950;2022-09-09T10:02:16;17.00;93.80
1137;DHT22;557;48.466;7.950;2022-09-09T10:05:05;17.10;31.90
1137;DHT22;557;48.466;7.950;2022-09-09T10:08:03;17.30;19.20
1137;DHT22;557;48.466;7.950;2022-09-09T10:11:13;17.40;6.00
1137;DHT22;557;48.466;7.950;2022-09-09T10:14:13;17.40;1.00
1137;DHT22;557;48.466;7.950;2022-09-09T10:17:10;17.60;4.90
1137;DHT22;557;48.466;7.950;2022-09-09T10:20:16;17.60;10.20
1137;DHT22;557;48.466;7.950;2022-09-09T10:23:13;17.90;4.30
1137;DHT22;557;48.466;7.950;2022-09-09T10:26:16;18.50;1.00
1137;DHT22;557;48.466;7.950;2022-09-09T10:29:21;18.80;1.00
1137;DHT22;557;48.466;7.950;2022-09-09T10:32:23;19.40;1.00
1137;DHT22;557;48.466;7.950;2022-09-09T10:35:24;20.00;99.90
1137;DHT22;557;48.466;7.950;2022-09-09T10:38:16;20.10;99.90
1137;DHT22;557;48.466;7.950;2022-09-09T10:41:22;19.80;99.90
1137;DHT22;557;48.466;7.950;2022-09-09T10:44:26;20.20;99.90
1137;DHT22;557;48.466;7.950;2022-09-09T10:47:46;20.70;99.90
1137;DHT22;557;48.466;7.950;2022-09-09T10:50:49;20.60;46.90
1137;DHT22;557;48.466;7.950;2022-09-09T10:53:46;20.20;99.90
1137;DHT22;557;48.466;7.950;2022-09-09T10:56:38;20.00;99.90
1137;DHT22;557;48.466;7.950;2022-09-09T10:59:27;19.90;1.00
1137;DHT22;557;48.466;7.950;2022-09-09T11:02:17;19.70;99.90
1137;DHT22;557;48.466;7.950;2022-09-09T11:05:08;19.60;99.90
1137;DHT22;557;48.466;7.950;2022-09-09T11:07:58;19.70;99.90
1137;DHT22;557;48.466;7.950;2022-09-09T11:10:50;19.70;99.90
1137;DHT22;557;48.466;7.950;2022-09-09T11:13:45;19.60;99.90
1137;DHT22;557;48.466;7.950;2022-09-09T11:16:39;19.90;99.90
1137;DHT22;557;48.466;7.950;2022-09-09T11:19:30;20.40;1.00
1137;DHT22;557;48.466;7.950;2022-09-09T11:22:25;21.00;1.00
1137;DHT22;557;48.466;7.950;2022-09-09T11:25:15;21.70;1.00
1137;DHT22;557;48.466;7.950;2022-09-09T11:28:35;22.50;99.90
1137;DHT22;557;48.466;7.950;2022-09-09T11:31:38;22.70;99.90
1137;DHT22;557;48.466;7.950;2022-09-09T11:34:37;22.60;99.90
1137;DHT22;557;48.466;7.950;2022-09-09T11:37:51;21.90;99.90
1137;DHT22;557;48.466;7.950;2022-09-09T11:40:39;21.70;99.90
1137;DHT22;557;48.466;7.950;2022-09-09T11:43:28;21.70;99.90
1137;DHT22;557;48.466;7.950;2022-09-09T11:46:18;21.80;99.90
1137;DHT22;557;48.466;7.950;2022-09-09T11:49:06;21.80;99.90
1137;DHT22;557;48.466;7.950;2022-09-09T11:51:52;22.20;99.90
1137;DHT22;557;48.466;7.950;2022-09-09T11:54:46;22.90;99.90
1137;DHT22;557;48.466;7.950;2022-09-09T11:57:35;23.40;99.90
1137;DHT22;557;48.466;7.950;2022-09-09T12:00:33;22.70;99.90
1137;DHT22;557;48.466;7.950;2022-09-09T12:03:41;21.90;99.90
1137;DHT22;557;48.466;7.950;2022-09-09T12:06:30;21.40;37.50
1137;DHT22;557;48.466;7.950;2022-09-09T12:09:25;21.10;99.90
1137;DHT22;557;48.466;7.950;2022-09-09T12:12:24;21.60;1.00
1137;DHT22;557;48.466;7.950;2022-09-09T12:15:26;22.30;20.50
1137;DHT22;557;48.466;7.950;2022-09-09T12:18:15;23.00;1.00
1137;DHT22;557;48.466;7.950;2022-09-09T12:21:16;23.60;99.90
1137;DHT22;557;48.466;7.950;2022-09-09T12:24:08;23.20;99.90
1137;DHT22;557;48.466;7.950;2022-09-09T12:26:58;23.30;99.90
1137;DHT22;557;48.466;7.950;2022-09-09T12:29:53;24.00;99.90
1137;DHT22;557;48.466;7.950;2022-09-09T12:32:41;24.00;99.90
1137;DHT22;557;48.466;7.950;2022-09-09T12:35:28;24.10;99.90
1137;DHT22;557;48.466;7.950;2022-09-09T12:38:21;23.80;99.90
1137;DHT22;557;48.466;7.950;2022-09-09T12:41:18;23.90;99.90
1137;DHT22;557;48.466;7.950;2022-09-09T12:44:05;24.90;99.90
1137;DHT22;557;48.466;7.950;2022-09-09T12:46:52;24.90;99.90
1137;DHT22;557;48.466;7.950;2022-09-09T12:49:39;24.80;99.90
1137;DHT22;557;48.466;7.950;2022-09-09T12:52:30;24.70;99.90
1137;DHT22;557;48.466;7.950;2022-09-09T12:55:20;24.60;99.90
1137;DHT22;557;48.466;7.950;2022-09-09T12:58:13;24.80;99.90
1137;DHT22;557;48.466;7.950;2022-09-09T13:01:03;24.90;99.90
1137;DHT22;557;48.466;7.950;2022-09-09T13:03:49;24.40;97.10
1137;DHT22;557;48.466;7.950;2022-09-09T13:06:35;23.60;91.20
1137;DHT22;557;48.466;7.950;2022-09-09T13:09:21;22.90;79.90
1137;DHT22;557;48.466;7.950;2022-09-09T13:12:13;22.60;76.00
1137;DHT22;557;48.466;7.950;2022-09-09T13:14:59;22.50;72.80
1137;DHT22;557;48.466;7.950;2022-09-09T13:17:51;22.40;74.20
1137;DHT22;557;48.466;7.950;2022-09-09T13:20:38;22.40;71.30
1137;DHT22;557;48.466;7.950;2022-09-09T13:23:27;22.20;64.80
1137;DHT22;557;48.466;7.950;2022-09-09T13:26:21;22.00;62.50
1137;DHT22;557;48.466;7.950;2022-09-09T13:29:18;22.10;62.90
1137;DHT22;557;48.466;7.950;2022-09-09T13:32:04;22.30;61.20
1137;DHT22;557;48.466;7.950;2022-09-09T13:34:53;22.60;58.70
1137;DHT22;557;48.466;7.950;2022-09-09T13:37:39;24.40;52.10
1137;DHT22;557;48.466;7.950;2022-09-09T13:40:25;25.90;54.60
1137;DHT22;557;48.466;7.950;2022-09-09T13:43:16;25.90;38.20
1137;DHT22;557;48.466;7.950;2022-09-09T13:46:21;25.40;33.80
1137;DHT22;557;48.466;7.950;2022-09-09T13:49:20;25.40;27.70
1137;DHT22;557;48.466;7.950;2022-09-09T13:52:10;24.40;27.60
1137;DHT22;557;48.466;7.950;2022-09-09T13:54:56;23.40;25.10
1137;DHT22;557;48.466;7.950;2022-09-09T13:57:50;23.60;28.50
1137;DHT22;557;48.466;7.950;2022-09-09T14:00:36;23.60;26.50
1137;DHT22;557;48.466;7.950;2022-09-09T14:03:23;24.50;28.50
1137;DHT22;557;48.466;7.950;2022-09-09T14:06:09;25.20;26.90
1137;DHT22;557;48.466;7.950;2022-09-09T14:08:55;24.40;30.60
1137;DHT22;557;48.466;7.950;2022-09-09T14:11:41;24.00;23.30
1137;DHT22;557;48.466;7.950;2022-09-09T14:14:27;23.60;23.30
1137;DHT22;557;48.466;7.950;2022-09-09T14:17:12;23.00;21.20
1137;DHT22;557;48.466;7.950;2022-09-09T14:19:59;22.60;22.10
1137;DHT22;557;48.466;7.950;2022-09-09T14:22:45;22.70;26.00
1137;DHT22;557;48.466;7.950;2022-09-09T14:25:31;22.90;26.30
1137;DHT22;557;48.466;7.950;2022-09-09T14:28:18;22.90;36.40
1137;DHT22;557;48.466;7.950;2022-09-09T14:31:04;22.90;30.00
1137;DHT22;557;48.466;7.950;2022-09-09T14:33:50;22.80;26.90
1137;DHT22;557;48.466;7.950;2022-09-09T14:36:38;22.40;25.30
1137;DHT22;557;48.466;7.950;2022-09-09T14:39:25;22.20;26.40
1137;DHT22;557;48.466;7.950;2022-09-09T14:42:10;22.00;26.40
1137;DHT22;557;48.466;7.950;2022-09-09T14:44:56;21.90;24.50
1137;DHT22;557;48.466;7.950;2022-09-09T14:47:41;21.80;21.30
1137;DHT22;557;48.466;7.950;2022-09-09T14:50:27;21.80;22.50
1137;DHT22;557;48.466;7.950;2022-09-09T14:53:16;21.70;41.00
1137;DHT22;557;48.466;7.950;2022-09-09T14:56:06;21.40;99.90
1137;DHT22;557;48.466;7.950;2022-09-09T14:58:53;21.10;99.90
1137;DHT22;557;48.466;7.950;2022-09-09T15:01:40;20.90;99.90
1137;DHT22;557;48.466;7.950;2022-09-09T15:04:26;20.80;99.90
1137;DHT22;557;48.466;7.950;2022-09-09T15:07:12;20.60;99.90
1137;DHT22;557;48.466;7.950;2022-09-09T15:09:59;20.50;1.00
1137;DHT22;557;48.466;7.950;2022-09-09T15:12:44;20.40;99.90
1137;DHT22;557;48.466;7.950;2022-09-09T15:15:30;20.40;1.00
1137;DHT22;557;48.466;7.950;2022-09-09T15:18:16;20.40;1.00
1137;DHT22;557;48.466;7.950;2022-09-09T15:21:03;20.50;99.90
1137;DHT22;557;48.466;7.950;2022-09-09T15:23:49;20.80;99.90
1137;DHT22;557;48.466;7.950;2022-09-09T15:26:37;21.10;99.90
1137;DHT22;557;48.466;7.950;2022-09-09T15:29:24;21.90;99.90
1137;DHT22;557;48.466;7.950;2022-09-09T15:32:09;22.10;99.90
1137;DHT22;557;48.466;7.950;2022-09-09T15:34:55;22.10;99.90
1137;DHT22;557;48.466;7.950;2022-09-09T15:37:41;21.90;99.90
1137;DHT22;557;48.466;7.950;2022-09-09T15:40:26;21.70;99.90
1137;DHT22;557;48.466;7.950;2022-09-09T15:43:14;21.50;99.90
1137;DHT22;557;48.466;7.950;2022-09-09T15:46:12;21.30;99.90
1137;DHT22;557;48.466;7.950;2022-09-09T15:49:09;21.20;99.90
1137;DHT22;557;48.466;7.950;2022-09-09T15:51:57;21.10;99.90
1137;DHT22;557;48.466;7.950;2022-09-09T15:54:43;21.00;99.90
1137;DHT22;557;48.466;7.950;2022-09-09T15:57:29;21.10;99.90
1137;DHT22;557;48.466;7.950;2022-09-09T16:00:16;21.30;99.90
1137;DHT22;557;48.466;7.950;2022-09-09T16:03:02;21.40;99.90
1137;DHT22;557;48.466;7.950;2022-09-09T16:05:51;21.20;99.90
1137;DHT22;557;48.466;7.950;2022-09-09T16:08:39;21.10;99.90
1137;DHT22;557;48.466;7.950;2022-09-09T16:11:26;21.00;99.90
1137;DHT22;557;48.466;7.950;2022-09-09T16:14:13;20.90;99.90
1137;DHT22;557;48.466;7.950;2022-09-09T16:17:01;20.80;99.90
1137;DHT22;557;48.466;7.950;2022-09-09T16:19:47;20.70;99.90
1137;DHT22;557;48.466;7.950;2022-09-09T16:22:32;20.70;99.90
1137;DHT22;557;48.466;7.950;2022-09-09T16:25:17;20.70;99.90
1137;DHT22;557;48.466;7.950;2022-09-09T16:28:03;20.60;99.90
1137;DHT22;557;48.466;7.950;2022-09-09T16:30:49;20.60;99.90
1137;DHT22;557;48.466;7.950;2022-09-09T16:33:36;20.60;99.90
1137;DHT22;557;48.466;7.950;2022-09-09T16:36:23;20.60;99.90
1137;DHT22;557;48.466;7.950;2022-09-09T16:39:11;20.50;99.90
1137;DHT22;557;48.466;7.950;2022-09-09T16:41:57;20.50;99.90
1137;DHT22;557;48.466;7.950;2022-09-09T16:44:44;20.50;99.90
1137;DHT22;557;48.466;7.950;2022-09-09T16:47:29;20.40;99.90
1137;DHT22;557;48.466;7.950;2022-09-09T16:50:16;20.40;99.90
1137;DHT22;557;48.466;7.950;2022-09-09T16:53:02;20.30;99.90
1137;DHT22;557;48.466;7.950;2022-09-09T16:55:50;20.40;99.90
1137;DHT22;557;48.466;7.950;2022-09-09T16:58:35;20.50;99.90
1137;DHT22;557;48.466;7.950;2022-09-09T17:01:22;20.70;99.90
1137;DHT22;557;48.466;7.950;2022-09-09T17:04:12;20.80;99.90
1137;DHT22;557;48.466;7.950;2022-09-09T17:07:00;20.80;99.90
1137;DHT22;557;48.466;7.950;2022-09-09T17:09:46;20.70;99.90
1137;DHT22;557;48.466;7.950;2022-09-09T17:12:32;20.50;99.90
1137;DHT22;557;48.466;7.950;2022-09-09T17:15:20;20.30;99.90
1137;DHT22;557;48.466;7.950;2022-09-09T17:18:08;20.10;99.90
1137;DHT22;557;48.466;7.950;2022-09-09T17:20:54;19.90;99.90
1137;DHT22;557;48.466;7.950;2022-09-09T17:23:41;19.90;99.90
1137;DHT22;557;48.466;7.950;2022-09-09T17:26:29;19.80;99.90
1137;DHT22;557;48.466;7.950;2022-09-09T17:29:15;19.70;1.00
1137;DHT22;557;48.466;7.950;2022-09-09T17:32:01;19.70;1.00
1137;DHT22;557;48.466;7.950;2022-09-09T17:34:47;19.60;1.00
1137;DHT22;557;48.466;7.950;2022-09-09T17:37:32;19.50;1.00
1137;DHT22;557;48.466;7.950;2022-09-09T17:40:19;19.40;1.00
1137;DHT22;557;48.466;7.950;2022-09-09T17:43:05;19.30;99.90
1137;DHT22;557;48.466;7.950;2022-09-09T17:45:52;19.30;99.90
1137;DHT22;557;48.466;7.950;2022-09-09T17:48:39;19.20;99.90
1137;DHT22;557;48.466;7.950;2022-09-09T17:51:26;19.10;64.40
1137;DHT22;557;48.466;7.950;2022-09-09T17:54:15;19.10;1.00
1137;DHT22;557;48.466;7.950;2022-09-09T17:57:03;19.10;1.00
1137;DHT22;557;48.466;7.950;2022-09-09T17:59:50;19.00;2.00
1137;DHT22;557;48.466;7.950;2022-09-09T18:02:35;18.90;99.90
1137;DHT22;557;48.466;7.950;2022-09-09T18:05:22;18.90;79.50
1137;DHT22;557;48.466;7.950;2022-09-09T18:08:07;18.80;92.90
1137;DHT22;557;48.466;7.950;2022-09-09T18:10:53;18.80;99.90
1137;DHT22;557;48.466;7.950;2022-09-09T18:13:41;18.70;99.90
1137;DHT22;557;48.466;7.950;2022-09-09T18:16:29;18.70;99.90
1137;DHT22;557;48.466;7.950;2022-09-09T18:19:16;18.60;99.90
1137;DHT22;557;48.466;7.950;2022-09-09T18:22:03;18.50;99.90
1137;DHT22;557;48.466;7.950;2022-09-09T18:24:50;18.50;99.90
1137;DHT22;557;48.466;7.950;2022-09-09T18:27:36;18.50;99.90
1137;DHT22;557;48.466;7.950;2022-09-09T18:30:23;18.50;1.00
1137;DHT22;557;48.466;7.950;2022-09-09T18:33:09;18.40;1.00
1137;DHT22;557;48.466;7.950;2022-09-09T18:35:55;18.40;1.00
1137;DHT22;557;48.466;7.950;2022-09-09T18:38:41;18.40;1.00
1137;DHT22;557;48.466;7.950;2022-09-09T18:41:29;18.40;1.00
1137;DHT22;557;48.466;7.950;2022-09-09T18:44:16;18.30;1.00
1137;DHT22;557;48.466;7.950;2022-09-09T18:47:05;18.30;1.00
1137;DHT22;557;48.466;7.950;2022-09-09T18:49:51;18.40;1.00
1137;DHT22;557;48.466;7.950;2022-09-09T18:52:37;18.40;1.00
1137;DHT22;557;48.466;7.950;2022-09-09T18:55:30;18.40;99.90